createdAt,value
2022-11-14T00:01:00.714Z,9.16
2022-11-14T00:03:50.469Z,8.98
2022-11-14T00:06:37.066Z,8.81
2022-11-14T00:09:27.339Z,9.16
2022-11-14T00:12:13.208Z,9.04
2022-11-14T00:14:59.284Z,9.12
2022-11-14T00:17:45.606Z,9.40
2022-11-14T00:20:32.374Z,8.91
2022-11-14T00:23:18.883Z,8.87
2022-11-14T00:26:06.655Z,9.25
2022-11-14T00:28:54.253Z,9.11
2022-11-14T00:31:40.517Z,8.78
2022-11-14T00:34:26.611Z,9.05
2022-11-14T00:37:12.741Z,9.22
2022-11-14T00:39:58.763Z,9.41
2022-11-14T00:42:45.081Z,9.37
2022-11-14T00:45:31.141Z,9.25
2022-11-14T00:48:17.573Z,9.15
2022-11-14T00:51:03.818Z,9.56
2022-11-14T00:53:49.908Z,9.37
2022-11-14T00:56:36.050Z,9.18
2022-11-14T00:59:22.342Z,9.39
2022-11-14T01:02:08.285Z,9.63
2022-11-14T01:04:57.099Z,9.29
2022-11-14T01:07:45.341Z,8.98
2022-11-14T01:10:31.309Z,9.07
2022-11-14T01:13:18.788Z,9.09
2022-11-14T01:16:05.797Z,9.03
2022-11-14T01:18:51.810Z,9.10
2022-11-14T01:21:38.100Z,9.26
2022-11-14T01:24:25.334Z,9.09
2022-11-14T01:27:11.398Z,8.97
2022-11-14T01:29:57.524Z,8.98
2022-11-14T01:32:43.767Z,9.06
2022-11-14T01:35:30.100Z,9.27
2022-11-14T01:38:16.225Z,9.70
2022-11-14T01:41:03.236Z,9.12
2022-11-14T01:43:49.723Z,8.83
2022-11-14T01:46:38.013Z,8.78
2022-11-14T01:49:38.326Z,9.33
2022-11-14T01:52:24.361Z,9.09
2022-11-14T01:55:10.870Z,9.30
2022-11-14T01:57:57.560Z,9.34
2022-11-14T02:00:44.458Z,9.27
2022-11-14T02:03:31.627Z,9.09
2022-11-14T02:06:20.752Z,9.04
2022-11-14T02:09:07.289Z,9.09
2022-11-14T02:11:54.686Z,8.94
2022-11-14T02:14:42.604Z,9.20
2022-11-14T02:17:30.844Z,9.36
2022-11-14T02:20:21.888Z,9.38
2022-11-14T02:23:29.953Z,9.42
2022-11-14T02:26:18.997Z,9.51
2022-11-14T02:29:06.057Z,9.20
2022-11-14T02:31:51.992Z,9.39
2022-11-14T02:34:40.143Z,9.17
2022-11-14T02:37:26.343Z,9.32
2022-11-14T02:40:12.641Z,9.13
2022-11-14T02:42:58.560Z,9.41
2022-11-14T02:45:44.826Z,9.49
2022-11-14T02:48:43.032Z,9.66
2022-11-14T02:51:41.408Z,9.69
2022-11-14T02:54:38.983Z,9.51
2022-11-14T02:57:37.460Z,9.57
2022-11-14T03:00:36.672Z,9.61
2022-11-14T03:03:33.765Z,9.38
2022-11-14T03:06:32.132Z,9.35
2022-11-14T03:09:29.684Z,9.65
2022-11-14T03:12:12.102Z,9.81
2022-11-14T03:14:54.089Z,9.66
2022-11-14T03:17:40.785Z,9.70
2022-11-14T03:20:37.233Z,9.75
2022-11-14T03:23:38.125Z,9.62
2022-11-14T03:26:34.816Z,9.29
2022-11-14T03:29:40.784Z,9.51
2022-11-14T03:32:47.268Z,9.65
2022-11-14T03:35:35.166Z,9.58
2022-11-14T03:38:25.783Z,9.15
2022-11-14T03:41:12.864Z,9.30
2022-11-14T03:43:55.205Z,9.34
2022-11-14T03:46:37.226Z,9.45
2022-11-14T03:49:19.261Z,9.59
2022-11-14T03:52:01.319Z,9.35
2022-11-14T03:54:48.391Z,9.09
2022-11-14T03:57:34.595Z,9.21
2022-11-14T04:00:21.054Z,8.77
2022-11-14T04:03:07.092Z,8.82
2022-11-14T04:05:53.338Z,9.01
2022-11-14T04:08:42.656Z,8.88
2022-11-14T04:11:29.236Z,9.33
2022-11-14T04:14:14.250Z,9.04
2022-11-14T04:17:00.457Z,9.06
2022-11-14T04:19:48.496Z,8.82
2022-11-14T04:22:30.336Z,9.11
2022-11-14T04:25:12.206Z,9.27
2022-11-14T04:27:58.575Z,9.22
2022-11-14T04:30:45.375Z,8.90
2022-11-14T04:33:31.335Z,9.03
2022-11-14T04:36:13.140Z,8.88
2022-11-14T04:38:55.400Z,9.15
2022-11-14T04:41:37.201Z,8.89
2022-11-14T04:44:48.151Z,8.44
2022-11-14T04:47:34.395Z,8.72
2022-11-14T04:50:20.405Z,8.93
2022-11-14T04:53:06.404Z,8.84
2022-11-14T04:55:52.408Z,8.64
2022-11-14T04:58:38.162Z,8.63
2022-11-14T05:01:24.039Z,8.78
2022-11-14T05:04:10.346Z,8.92
2022-11-14T05:06:56.291Z,8.85
2022-11-14T05:09:42.512Z,8.65
2022-11-14T05:12:28.517Z,8.59
2022-11-14T05:15:14.803Z,8.45
2022-11-14T05:18:01.404Z,8.65
2022-11-14T05:20:47.398Z,8.49
2022-11-14T05:23:33.477Z,8.49
2022-11-14T05:26:19.742Z,8.46
2022-11-14T05:29:05.668Z,8.37
2022-11-14T05:31:51.775Z,8.79
2022-11-14T05:34:38.361Z,8.62
2022-11-14T05:37:24.535Z,8.44
2022-11-14T05:40:11.098Z,8.80
2022-11-14T05:42:57.183Z,8.40
2022-11-14T05:45:43.288Z,8.40
2022-11-14T05:48:30.733Z,8.76
2022-11-14T05:51:16.920Z,8.54
2022-11-14T05:54:03.069Z,8.63
2022-11-14T05:56:49.259Z,8.74
2022-11-14T05:59:35.480Z,8.57
2022-11-14T06:02:21.831Z,8.42
2022-11-14T06:05:08.412Z,8.59
2022-11-14T06:07:58.838Z,8.86
2022-11-14T06:10:45.066Z,8.64
2022-11-14T06:13:32.924Z,8.73
2022-11-14T06:16:34.162Z,9.16
2022-11-14T06:19:31.808Z,9.05
2022-11-14T06:22:14.159Z,8.95
2022-11-14T06:24:56.244Z,9.11
2022-11-14T06:27:53.890Z,9.15
2022-11-14T06:30:36.232Z,8.76
2022-11-14T06:33:41.813Z,8.59
2022-11-14T06:36:24.519Z,8.39
2022-11-14T06:39:06.233Z,8.61
2022-11-14T06:41:48.270Z,8.72
2022-11-14T06:44:31.263Z,8.88
2022-11-14T06:47:12.210Z,9.29
2022-11-14T06:49:54.263Z,8.90
2022-11-14T06:52:36.222Z,8.74
2022-11-14T06:55:23.955Z,8.73
2022-11-14T07:02:23.035Z,8.88
2022-11-14T07:05:20.832Z,8.94
2022-11-14T07:08:03.575Z,9.20
2022-11-14T07:10:46.294Z,9.30
2022-11-14T07:13:28.163Z,9.29
2022-11-14T07:16:10.267Z,9.53
2022-11-14T07:18:52.585Z,9.55
2022-11-14T07:21:35.489Z,9.58
2022-11-14T07:24:27.225Z,9.60
2022-11-14T07:27:13.432Z,9.46
2022-11-14T07:29:56.419Z,9.51
2022-11-14T07:32:42.753Z,9.29
2022-11-14T07:35:28.823Z,9.27
2022-11-14T07:38:11.260Z,9.42
2022-11-14T07:41:08.485Z,9.73
2022-11-14T07:43:50.201Z,9.72
2022-11-14T07:46:32.269Z,9.89
2022-11-14T07:49:14.231Z,9.93
2022-11-14T07:52:06.214Z,9.81
2022-11-14T07:54:48.598Z,10.05
2022-11-14T07:57:33.301Z,10.37
2022-11-14T08:00:13.884Z,10.51
2022-11-14T08:02:56.172Z,10.58
2022-11-14T08:05:38.155Z,10.48
2022-11-14T08:08:24.260Z,10.62
2022-11-14T08:11:07.608Z,10.54
2022-11-14T08:13:52.481Z,10.68
2022-11-14T08:16:51.897Z,10.12
2022-11-14T08:19:34.247Z,10.40
2022-11-14T08:22:16.191Z,10.27
2022-11-14T08:24:58.290Z,10.49
2022-11-14T08:27:41.200Z,10.84
2022-11-14T08:30:23.186Z,11.11
2022-11-14T08:33:06.560Z,10.86
2022-11-14T08:35:50.255Z,11.02
2022-11-14T08:38:43.128Z,11.16
2022-11-14T08:41:49.332Z,11.28
2022-11-14T08:44:31.233Z,11.33
2022-11-14T08:47:13.212Z,11.39
2022-11-14T08:49:55.192Z,11.83
2022-11-14T08:52:37.122Z,11.78
2022-11-14T08:55:20.598Z,11.90
2022-11-14T08:58:03.390Z,11.57
2022-11-14T09:00:45.666Z,11.87
2022-11-14T09:03:32.992Z,11.98
2022-11-14T09:06:15.258Z,12.11
2022-11-14T09:08:58.040Z,12.51
2022-11-14T09:11:44.243Z,11.85
2022-11-14T09:14:26.211Z,12.03
2022-11-14T09:17:12.335Z,11.80
2022-11-14T09:19:54.346Z,12.31
2022-11-14T09:22:36.154Z,12.53
2022-11-14T09:25:18.190Z,12.25
2022-11-14T09:28:18.044Z,12.22
2022-11-14T09:31:08.461Z,12.47
2022-11-14T09:33:50.183Z,12.94
2022-11-14T09:36:37.441Z,12.81
2022-11-14T09:39:23.741Z,13.01
2022-11-14T09:42:20.132Z,12.76
2022-11-14T09:45:15.376Z,12.95
2022-11-14T09:48:11.938Z,12.97
2022-11-14T09:51:05.044Z,13.34
2022-11-14T09:53:57.459Z,13.56
2022-11-14T09:56:50.677Z,13.32
2022-11-14T09:59:56.791Z,13.36
2022-11-14T10:03:21.692Z,13.74
2022-11-14T10:06:29.260Z,13.73
2022-11-14T10:09:20.997Z,13.38
2022-11-14T10:12:10.585Z,14.01
2022-11-14T10:14:58.251Z,13.68
2022-11-14T10:18:05.229Z,13.74
2022-11-14T10:21:03.960Z,13.84
2022-11-14T10:24:05.854Z,14.60
2022-11-14T10:27:02.187Z,14.42
2022-11-14T10:29:52.457Z,14.13
2022-11-14T10:32:50.457Z,14.15
2022-11-14T10:35:38.468Z,13.89
2022-11-14T10:38:42.724Z,14.27
2022-11-14T10:41:56.008Z,14.57
2022-11-14T10:44:25.223Z,14.10
2022-11-14T10:47:13.579Z,14.15
2022-11-14T10:50:19.907Z,14.75
2022-11-14T10:53:05.969Z,14.89
2022-11-14T10:56:04.353Z,14.81
2022-11-14T10:58:47.056Z,15.06
2022-11-14T11:01:44.199Z,15.13
2022-11-14T11:04:30.036Z,14.98
2022-11-14T11:07:44.190Z,14.22
2022-11-14T11:10:49.867Z,14.15
2022-11-14T11:13:51.240Z,14.16
2022-11-14T11:16:37.404Z,14.55
2022-11-14T11:19:26.401Z,14.62
2022-11-14T11:22:51.219Z,14.92
2022-11-14T11:25:39.155Z,15.04
2022-11-14T11:28:25.258Z,15.10
2022-11-14T11:31:11.764Z,14.98
2022-11-14T11:34:03.397Z,14.85
2022-11-14T11:36:54.089Z,14.82
2022-11-14T11:39:52.106Z,14.32
2022-11-14T11:45:47.639Z,14.47
2022-11-14T11:48:46.562Z,14.99
2022-11-14T11:51:46.362Z,15.18
2022-11-14T11:54:51.905Z,14.83
2022-11-14T11:58:02.510Z,14.19
2022-11-14T12:00:53.047Z,14.78
2022-11-14T12:03:40.586Z,14.73
2022-11-14T12:06:28.708Z,14.78
2022-11-14T12:09:17.663Z,14.41
2022-11-14T12:12:10.837Z,14.56
2022-11-14T12:15:28.933Z,15.19
2022-11-14T12:18:18.230Z,15.33
2022-11-14T12:21:04.120Z,14.71
2022-11-14T12:24:19.377Z,14.81
2022-11-14T12:27:11.647Z,15.14
2022-11-14T12:30:21.834Z,15.21
2022-11-14T12:33:15.746Z,14.78
2022-11-14T12:36:05.840Z,15.29
2022-11-14T12:38:53.722Z,15.24
2022-11-14T12:41:40.556Z,14.88
2022-11-14T12:44:29.689Z,15.06
2022-11-14T12:47:16.765Z,15.17
2022-11-14T12:50:39.913Z,14.37
2022-11-14T12:53:38.214Z,14.85
2022-11-14T12:56:30.792Z,15.00
2022-11-14T12:59:31.957Z,15.22
2022-11-14T13:02:45.236Z,15.22
2022-11-14T13:05:48.802Z,15.10
2022-11-14T13:09:12.775Z,15.03
2022-11-14T13:12:17.800Z,15.39
2022-11-14T13:15:43.479Z,15.56
2022-11-14T13:18:52.604Z,15.58
2022-11-14T13:21:47.711Z,15.76
2022-11-14T13:24:59.005Z,15.52
2022-11-14T13:28:06.376Z,15.52
2022-11-14T13:31:16.868Z,15.11
2022-11-14T13:34:40.963Z,15.69
2022-11-14T13:37:51.860Z,15.89
2022-11-14T13:40:57.049Z,15.64
2022-11-14T13:43:46.071Z,15.77
2022-11-14T13:46:44.205Z,15.82
2022-11-14T13:49:49.829Z,15.97
2022-11-14T13:52:42.849Z,15.54
2022-11-14T13:55:48.547Z,15.82
2022-11-14T13:59:08.095Z,15.49
2022-11-14T14:02:10.355Z,15.34
2022-11-14T14:05:11.518Z,15.54
2022-11-14T14:08:06.738Z,15.29
2022-11-14T14:11:04.936Z,15.69
2022-11-14T14:14:00.702Z,15.51
2022-11-14T14:16:57.376Z,15.38
2022-11-14T14:20:06.763Z,15.31
2022-11-14T14:23:07.166Z,15.30
2022-11-14T14:26:10.960Z,15.36
2022-11-14T14:29:33.902Z,15.05
2022-11-14T14:32:20.503Z,15.49
2022-11-14T14:35:26.476Z,15.40
2022-11-14T14:38:13.846Z,15.31
2022-11-14T14:41:07.418Z,15.14
2022-11-14T14:43:56.554Z,15.24
2022-11-14T14:46:45.083Z,15.26
2022-11-14T14:49:35.611Z,15.02
2022-11-14T14:52:37.077Z,15.03
2022-11-14T14:55:32.483Z,15.03
2022-11-14T14:58:22.757Z,14.92
2022-11-14T15:01:16.782Z,14.75
2022-11-14T15:04:05.710Z,14.73
2022-11-14T15:06:56.090Z,14.54
2022-11-14T15:10:00.520Z,14.11
2022-11-14T15:12:46.840Z,14.32
2022-11-14T15:15:33.410Z,14.30
2022-11-14T15:18:28.679Z,14.09
2022-11-14T15:21:29.322Z,14.08
2022-11-14T15:24:17.408Z,13.72
2022-11-14T15:27:05.579Z,13.70
2022-11-14T15:29:54.216Z,13.75
2022-11-14T15:32:50.065Z,13.84
2022-11-14T15:35:38.311Z,13.80
2022-11-14T15:41:32.425Z,13.79
2022-11-14T15:44:32.453Z,13.66
2022-11-14T15:47:29.659Z,13.32
2022-11-14T15:50:16.179Z,13.37
2022-11-14T15:53:05.046Z,13.44
2022-11-14T15:55:50.919Z,13.31
2022-11-14T15:58:37.145Z,13.21
2022-11-14T16:01:26.188Z,13.20
2022-11-14T16:04:18.532Z,13.18
2022-11-14T16:07:05.065Z,13.24
2022-11-14T16:09:51.491Z,12.99
2022-11-14T16:12:37.864Z,13.31
2022-11-14T16:15:23.908Z,13.08
2022-11-14T16:18:11.871Z,12.97
2022-11-14T16:20:59.545Z,12.94
2022-11-14T16:23:45.847Z,12.97
2022-11-14T16:26:33.014Z,13.02
2022-11-14T16:29:19.210Z,13.05
2022-11-14T16:32:05.463Z,12.87
2022-11-14T16:34:51.489Z,12.86
2022-11-14T16:37:38.185Z,12.60
2022-11-14T16:40:27.800Z,12.59
2022-11-14T16:43:14.893Z,12.65
2022-11-14T16:46:05.448Z,12.36
2022-11-14T16:48:51.355Z,12.40
2022-11-14T16:51:48.569Z,12.34
2022-11-14T16:54:35.829Z,12.26
2022-11-14T16:57:22.534Z,12.27
2022-11-14T17:00:12.459Z,12.16
2022-11-14T17:02:59.382Z,11.94
2022-11-14T17:05:46.980Z,11.94
2022-11-14T17:08:33.078Z,11.81
2022-11-14T17:11:19.274Z,11.92
2022-11-14T17:14:07.545Z,11.87
2022-11-14T17:16:53.615Z,12.07
2022-11-14T17:19:45.813Z,11.72
2022-11-14T17:22:34.015Z,11.82
2022-11-14T17:25:20.624Z,11.64
2022-11-14T17:28:06.799Z,11.91
2022-11-14T17:30:52.869Z,11.51
2022-11-14T17:33:39.059Z,11.40
2022-11-14T17:36:27.204Z,11.35
2022-11-14T17:39:13.245Z,11.37
2022-11-14T17:41:59.286Z,11.37
2022-11-14T17:44:45.193Z,11.26
2022-11-14T17:47:31.348Z,11.07
2022-11-14T17:50:17.510Z,10.99
2022-11-14T17:53:03.523Z,11.03
2022-11-14T17:55:57.340Z,11.07
2022-11-14T17:58:44.009Z,11.01
2022-11-14T18:01:31.639Z,10.79
2022-11-14T18:04:17.998Z,10.63
2022-11-14T18:07:04.983Z,10.57
2022-11-14T18:09:51.283Z,10.60
2022-11-14T18:12:37.454Z,10.64
2022-11-14T18:15:27.722Z,10.40
2022-11-14T18:18:14.447Z,10.56
2022-11-14T18:21:07.751Z,10.63
2022-11-14T18:23:55.555Z,10.52
2022-11-14T18:26:41.714Z,10.46
2022-11-14T18:29:28.534Z,10.29
2022-11-14T18:32:15.741Z,10.42
2022-11-14T18:35:01.596Z,10.57
2022-11-14T18:37:47.818Z,10.53
2022-11-14T18:40:34.098Z,10.51
2022-11-14T18:43:20.273Z,10.52
2022-11-14T18:46:18.053Z,10.67
2022-11-14T18:49:04.520Z,10.65
2022-11-14T18:51:50.722Z,10.47
2022-11-14T18:54:38.264Z,10.69
2022-11-14T18:57:24.312Z,10.70
2022-11-14T19:00:11.641Z,10.21
2022-11-14T19:03:01.039Z,10.10
2022-11-14T19:05:51.027Z,10.14
2022-11-14T19:08:37.277Z,10.15
2022-11-14T19:11:42.962Z,10.28
2022-11-14T19:14:29.433Z,10.20
2022-11-14T19:17:20.715Z,10.12
2022-11-14T19:20:12.924Z,10.16
2022-11-14T19:23:00.256Z,10.18
2022-11-14T19:25:48.067Z,10.18
2022-11-14T19:28:34.197Z,10.03
2022-11-14T19:31:21.029Z,10.07
2022-11-14T19:34:07.104Z,10.01
2022-11-14T19:37:02.022Z,9.97
2022-11-14T19:39:52.562Z,9.91
2022-11-14T19:42:38.644Z,9.89
2022-11-14T19:45:25.097Z,9.67
2022-11-14T19:48:11.396Z,9.73
2022-11-14T19:51:02.564Z,9.91
2022-11-14T19:53:49.074Z,9.57
2022-11-14T19:56:35.302Z,9.94
2022-11-14T19:59:26.251Z,9.70
2022-11-14T20:02:13.414Z,9.64
2022-11-14T20:04:59.537Z,9.79
2022-11-14T20:07:45.655Z,9.44
2022-11-14T20:10:31.895Z,9.19
2022-11-14T20:13:17.952Z,9.17
2022-11-14T20:16:15.070Z,9.20
2022-11-14T20:19:02.036Z,9.31
2022-11-14T20:21:49.043Z,9.04
2022-11-14T20:24:35.127Z,9.10
2022-11-14T20:27:21.195Z,9.01
2022-11-14T20:30:07.916Z,8.99
2022-11-14T20:32:54.278Z,9.00
2022-11-14T20:35:40.469Z,9.04
2022-11-14T20:38:29.083Z,9.02
2022-11-14T20:41:15.785Z,8.92
2022-11-14T20:44:03.572Z,8.75
2022-11-14T20:46:49.736Z,8.89
2022-11-14T20:49:35.770Z,8.88
2022-11-14T20:52:22.093Z,8.75
2022-11-14T20:55:11.757Z,8.81
2022-11-14T20:57:57.936Z,8.83
2022-11-14T21:00:43.957Z,8.77
2022-11-14T21:03:30.569Z,8.64
2022-11-14T21:06:17.485Z,8.68
2022-11-14T21:09:03.968Z,8.74
2022-11-14T21:11:50.211Z,8.79
2022-11-14T21:14:36.196Z,8.79
2022-11-14T21:17:22.267Z,8.74
2022-11-14T21:20:09.434Z,8.54
2022-11-14T21:22:55.724Z,8.76
2022-11-14T21:25:41.973Z,8.81
2022-11-14T21:28:30.242Z,8.51
2022-11-14T21:31:31.662Z,8.37
2022-11-14T21:34:18.205Z,8.42
2022-11-14T21:37:04.486Z,8.20
2022-11-14T21:39:50.514Z,8.34
2022-11-14T21:42:36.671Z,8.22
2022-11-14T21:45:22.861Z,8.15
2022-11-14T21:48:08.966Z,8.19
2022-11-14T21:51:02.554Z,8.27
2022-11-14T21:53:49.969Z,8.30
2022-11-14T21:56:37.277Z,8.24
2022-11-14T21:59:27.463Z,8.21
2022-11-14T22:02:32.087Z,8.28
2022-11-14T22:05:17.940Z,8.17
2022-11-14T22:08:04.292Z,8.32
2022-11-14T22:10:49.982Z,8.37
2022-11-14T22:13:35.977Z,8.39
2022-11-14T22:16:22.040Z,8.18
2022-11-14T22:19:07.906Z,8.44
2022-11-14T22:21:54.459Z,8.22
2022-11-14T22:24:43.787Z,8.48
2022-11-14T22:27:30.560Z,8.37
2022-11-14T22:30:16.817Z,8.30
2022-11-14T22:33:02.905Z,8.38
2022-11-14T22:35:48.870Z,8.40
2022-11-14T22:38:36.074Z,8.43
2022-11-14T22:41:32.789Z,8.33
2022-11-14T22:44:19.715Z,8.45
2022-11-14T22:47:05.781Z,8.34
2022-11-14T22:49:51.776Z,8.33
2022-11-14T22:52:37.960Z,8.38
2022-11-14T22:55:23.770Z,8.36
2022-11-14T22:58:09.969Z,8.84
2022-11-14T23:00:56.032Z,8.80
2022-11-14T23:03:42.193Z,8.85
2022-11-14T23:06:31.661Z,8.45
2022-11-14T23:09:33.131Z,8.48
2022-11-14T23:12:15.776Z,8.51
2022-11-14T23:15:14.229Z,8.50
2022-11-14T23:18:12.086Z,8.62
2022-11-14T23:21:15.297Z,8.66
2022-11-14T23:24:15.631Z,8.82
2022-11-14T23:27:13.793Z,8.70
2022-11-14T23:30:12.239Z,8.64
2022-11-14T23:33:09.791Z,8.60
2022-11-14T23:36:08.272Z,8.75
2022-11-14T23:38:56.198Z,8.87
2022-11-14T23:41:54.026Z,8.94
2022-11-14T23:44:51.802Z,8.73
2022-11-14T23:47:50.131Z,8.82
2022-11-14T23:50:41.364Z,8.79
2022-11-14T23:53:39.419Z,8.67
2022-11-14T23:56:25.819Z,8.81
2022-11-14T23:59:11.816Z,8.70
